sensor_id;sensor_type;location;lat;lon;timestamp;P1;durP1;ratioP1;P2;durP2;ratioP2
5787;SDS011;2920;48.158;12.254;2023-04-06T00:00:48;7.40;;;4.18;;
5787;SDS011;2920;48.158;12.254;2023-04-06T00:03:14;7.63;;;4.28;;
5787;SDS011;2920;48.158;12.254;2023-04-06T00:05:39;8.43;;;5.15;;
5787;SDS011;2920;48.158;12.254;2023-04-06T00:08:05;9.75;;;4.60;;
5787;SDS011;2920;48.158;12.254;2023-04-06T00:10:30;8.23;;;4.85;;
5787;SDS011;2920;48.158;12.254;2023-04-06T00:12:56;7.70;;;4.13;;
5787;SDS011;2920;48.158;12.254;2023-04-06T00:15:22;6.00;;;4.55;;
5787;SDS011;2920;48.158;12.254;2023-04-06T00:17:48;8.10;;;4.55;;
5787;SDS011;2920;48.158;12.254;2023-04-06T00:20:13;5.55;;;3.92;;
5787;SDS011;2920;48.158;12.254;2023-04-06T00:22:39;7.47;;;4.75;;
5787;SDS011;2920;48.158;12.254;2023-04-06T00:25:05;6.55;;;4.47;;
5787;SDS011;2920;48.158;12.254;2023-04-06T00:27:31;7.80;;;4.45;;
5787;SDS011;2920;48.158;12.254;2023-04-06T00:29:56;8.30;;;4.30;;
5787;SDS011;2920;48.158;12.254;2023-04-06T00:32:21;6.88;;;4.15;;
5787;SDS011;2920;48.158;12.254;2023-04-06T00:34:47;9.55;;;4.80;;
5787;SDS011;2920;48.158;12.254;2023-04-06T00:37:12;9.88;;;4.88;;
5787;SDS011;2920;48.158;12.254;2023-04-06T00:39:37;9.25;;;4.30;;
5787;SDS011;2920;48.158;12.254;2023-04-06T00:42:07;14.68;;;5.20;;
5787;SDS011;2920;48.158;12.254;2023-04-06T00:44:36;7.43;;;4.22;;
5787;SDS011;2920;48.158;12.254;2023-04-06T00:47:01;8.60;;;4.28;;
5787;SDS011;2920;48.158;12.254;2023-04-06T00:49:27;7.05;;;4.60;;
5787;SDS011;2920;48.158;12.254;2023-04-06T00:51:52;5.18;;;3.63;;
5787;SDS011;2920;48.158;12.254;2023-04-06T00:54:18;8.82;;;4.53;;
5787;SDS011;2920;48.158;12.254;2023-04-06T00:56:43;7.78;;;3.92;;
5787;SDS011;2920;48.158;12.254;2023-04-06T00:59:08;9.95;;;4.40;;
5787;SDS011;2920;48.158;12.254;2023-04-06T01:01:34;9.82;;;4.22;;
5787;SDS011;2920;48.158;12.254;2023-04-06T01:03:59;9.40;;;4.40;;
5787;SDS011;2920;48.158;12.254;2023-04-06T01:06:25;7.38;;;4.47;;
5787;SDS011;2920;48.158;12.254;2023-04-06T01:08:50;8.15;;;4.43;;
5787;SDS011;2920;48.158;12.254;2023-04-06T01:11:16;6.22;;;4.38;;
5787;SDS011;2920;48.158;12.254;2023-04-06T01:13:42;9.93;;;4.70;;
5787;SDS011;2920;48.158;12.254;2023-04-06T01:16:07;7.05;;;4.38;;
5787;SDS011;2920;48.158;12.254;2023-04-06T01:18:34;5.53;;;3.92;;
5787;SDS011;2920;48.158;12.254;2023-04-06T01:21:00;7.70;;;4.28;;
5787;SDS011;2920;48.158;12.254;2023-04-06T01:23:26;9.07;;;4.75;;
5787;SDS011;2920;48.158;12.254;2023-04-06T01:25:51;8.73;;;5.07;;
5787;SDS011;2920;48.158;12.254;2023-04-06T01:28:17;6.78;;;3.70;;
5787;SDS011;2920;48.158;12.254;2023-04-06T01:30:42;5.65;;;3.80;;
5787;SDS011;2920;48.158;12.254;2023-04-06T01:33:07;7.07;;;4.00;;
5787;SDS011;2920;48.158;12.254;2023-04-06T01:35:33;7.03;;;4.22;;
5787;SDS011;2920;48.158;12.254;2023-04-06T01:37:58;6.07;;;4.20;;
5787;SDS011;2920;48.158;12.254;2023-04-06T01:40:23;8.43;;;4.00;;
5787;SDS011;2920;48.158;12.254;2023-04-06T01:42:49;5.68;;;3.53;;
5787;SDS011;2920;48.158;12.254;2023-04-06T01:45:15;10.35;;;4.40;;
5787;SDS011;2920;48.158;12.254;2023-04-06T01:47:40;11.90;;;4.97;;
5787;SDS011;2920;48.158;12.254;2023-04-06T01:50:06;8.35;;;5.00;;
5787;SDS011;2920;48.158;12.254;2023-04-06T01:52:35;8.50;;;4.50;;
5787;SDS011;2920;48.158;12.254;2023-04-06T01:55:00;6.75;;;4.30;;
5787;SDS011;2920;48.158;12.254;2023-04-06T01:57:25;7.28;;;3.63;;
5787;SDS011;2920;48.158;12.254;2023-04-06T01:59:51;7.10;;;3.90;;
5787;SDS011;2920;48.158;12.254;2023-04-06T02:02:16;6.15;;;3.88;;
5787;SDS011;2920;48.158;12.254;2023-04-06T02:04:42;6.07;;;3.10;;
5787;SDS011;2920;48.158;12.254;2023-04-06T02:07:07;4.65;;;3.25;;
5787;SDS011;2920;48.158;12.254;2023-04-06T02:09:33;6.82;;;3.45;;
5787;SDS011;2920;48.158;12.254;2023-04-06T02:11:58;5.60;;;3.25;;
5787;SDS011;2920;48.158;12.254;2023-04-06T02:14:24;6.15;;;3.30;;
5787;SDS011;2920;48.158;12.254;2023-04-06T02:16:50;8.25;;;4.13;;
5787;SDS011;2920;48.158;12.254;2023-04-06T02:19:16;5.30;;;3.50;;
5787;SDS011;2920;48.158;12.254;2023-04-06T02:21:41;9.52;;;3.47;;
5787;SDS011;2920;48.158;12.254;2023-04-06T02:24:07;10.13;;;4.03;;
5787;SDS011;2920;48.158;12.254;2023-04-06T02:26:32;8.15;;;4.47;;
5787;SDS011;2920;48.158;12.254;2023-04-06T02:28:57;10.75;;;4.05;;
5787;SDS011;2920;48.158;12.254;2023-04-06T02:31:23;8.10;;;4.10;;
5787;SDS011;2920;48.158;12.254;2023-04-06T02:33:48;6.88;;;3.67;;
5787;SDS011;2920;48.158;12.254;2023-04-06T02:36:13;12.70;;;4.10;;
5787;SDS011;2920;48.158;12.254;2023-04-06T02:38:39;9.60;;;3.90;;
5787;SDS011;2920;48.158;12.254;2023-04-06T02:41:05;9.30;;;4.15;;
5787;SDS011;2920;48.158;12.254;2023-04-06T02:43:30;9.10;;;4.22;;
5787;SDS011;2920;48.158;12.254;2023-04-06T02:45:55;7.13;;;4.20;;
5787;SDS011;2920;48.158;12.254;2023-04-06T02:48:21;5.22;;;3.25;;
5787;SDS011;2920;48.158;12.254;2023-04-06T02:50:46;5.38;;;3.42;;
5787;SDS011;2920;48.158;12.254;2023-04-06T02:53:11;8.80;;;3.65;;
5787;SDS011;2920;48.158;12.254;2023-04-06T02:55:36;5.80;;;3.28;;
5787;SDS011;2920;48.158;12.254;2023-04-06T02:58:02;6.43;;;3.83;;
5787;SDS011;2920;48.158;12.254;2023-04-06T03:00:27;5.50;;;3.55;;
5787;SDS011;2920;48.158;12.254;2023-04-06T03:02:52;7.70;;;3.47;;
5787;SDS011;2920;48.158;12.254;2023-04-06T03:05:18;3.80;;;3.10;;
5787;SDS011;2920;48.158;12.254;2023-04-06T03:07:43;5.38;;;3.50;;
5787;SDS011;2920;48.158;12.254;2023-04-06T03:10:08;6.10;;;4.53;;
5787;SDS011;2920;48.158;12.254;2023-04-06T03:12:34;7.00;;;4.43;;
5787;SDS011;2920;48.158;12.254;2023-04-06T03:15:00;7.38;;;4.30;;
5787;SDS011;2920;48.158;12.254;2023-04-06T03:17:25;6.68;;;4.13;;
5787;SDS011;2920;48.158;12.254;2023-04-06T03:19:50;6.63;;;4.75;;
5787;SDS011;2920;48.158;12.254;2023-04-06T03:22:16;6.80;;;3.95;;
5787;SDS011;2920;48.158;12.254;2023-04-06T03:24:41;7.88;;;4.30;;
5787;SDS011;2920;48.158;12.254;2023-04-06T03:27:06;8.32;;;4.18;;
5787;SDS011;2920;48.158;12.254;2023-04-06T03:29:32;7.47;;;4.07;;
5787;SDS011;2920;48.158;12.254;2023-04-06T03:31:57;7.00;;;3.78;;
5787;SDS011;2920;48.158;12.254;2023-04-06T03:34:22;7.30;;;4.00;;
5787;SDS011;2920;48.158;12.254;2023-04-06T03:36:48;8.23;;;4.38;;
5787;SDS011;2920;48.158;12.254;2023-04-06T03:39:13;8.82;;;4.28;;
5787;SDS011;2920;48.158;12.254;2023-04-06T03:41:38;6.60;;;4.40;;
5787;SDS011;2920;48.158;12.254;2023-04-06T03:44:05;7.43;;;4.18;;
5787;SDS011;2920;48.158;12.254;2023-04-06T03:46:30;7.05;;;3.83;;
5787;SDS011;2920;48.158;12.254;2023-04-06T03:48:56;8.80;;;4.43;;
5787;SDS011;2920;48.158;12.254;2023-04-06T03:51:21;8.70;;;4.32;;
5787;SDS011;2920;48.158;12.254;2023-04-06T03:53:46;9.45;;;4.53;;
5787;SDS011;2920;48.158;12.254;2023-04-06T03:56:12;12.20;;;4.97;;
5787;SDS011;2920;48.158;12.254;2023-04-06T03:58:37;8.23;;;4.25;;
5787;SDS011;2920;48.158;12.254;2023-04-06T04:01:02;8.50;;;4.63;;
5787;SDS011;2920;48.158;12.254;2023-04-06T04:03:28;9.13;;;4.65;;
5787;SDS011;2920;48.158;12.254;2023-04-06T04:05:54;8.45;;;4.00;;
5787;SDS011;2920;48.158;12.254;2023-04-06T04:08:23;10.68;;;4.82;;
5787;SDS011;2920;48.158;12.254;2023-04-06T04:10:49;8.57;;;4.13;;
5787;SDS011;2920;48.158;12.254;2023-04-06T04:13:15;8.55;;;5.35;;
5787;SDS011;2920;48.158;12.254;2023-04-06T04:15:40;8.43;;;4.63;;
5787;SDS011;2920;48.158;12.254;2023-04-06T04:18:06;5.85;;;4.00;;
5787;SDS011;2920;48.158;12.254;2023-04-06T04:20:31;8.32;;;4.50;;
5787;SDS011;2920;48.158;12.254;2023-04-06T04:22:57;10.48;;;4.35;;
5787;SDS011;2920;48.158;12.254;2023-04-06T04:25:22;10.32;;;4.22;;
5787;SDS011;2920;48.158;12.254;2023-04-06T04:27:48;8.45;;;3.92;;
5787;SDS011;2920;48.158;12.254;2023-04-06T04:30:13;8.25;;;3.72;;
5787;SDS011;2920;48.158;12.254;2023-04-06T04:32:39;7.25;;;3.65;;
5787;SDS011;2920;48.158;12.254;2023-04-06T04:35:05;7.30;;;3.92;;
5787;SDS011;2920;48.158;12.254;2023-04-06T04:37:30;9.25;;;4.50;;
5787;SDS011;2920;48.158;12.254;2023-04-06T04:39:56;7.03;;;4.60;;
5787;SDS011;2920;48.158;12.254;2023-04-06T04:42:21;7.25;;;4.50;;
5787;SDS011;2920;48.158;12.254;2023-04-06T04:44:47;9.32;;;4.28;;
5787;SDS011;2920;48.158;12.254;2023-04-06T04:47:12;13.80;;;5.03;;
5787;SDS011;2920;48.158;12.254;2023-04-06T04:49:37;11.05;;;4.63;;
5787;SDS011;2920;48.158;12.254;2023-04-06T04:52:03;7.72;;;3.85;;
5787;SDS011;2920;48.158;12.254;2023-04-06T04:54:28;10.32;;;4.32;;
5787;SDS011;2920;48.158;12.254;2023-04-06T04:56:54;9.77;;;4.68;;
5787;SDS011;2920;48.158;12.254;2023-04-06T04:59:19;8.80;;;4.35;;
5787;SDS011;2920;48.158;12.254;2023-04-06T05:01:47;12.60;;;4.20;;
5787;SDS011;2920;48.158;12.254;2023-04-06T05:04:13;9.45;;;5.65;;
5787;SDS011;2920;48.158;12.254;2023-04-06T05:06:38;8.48;;;4.22;;
5787;SDS011;2920;48.158;12.254;2023-04-06T05:09:03;12.30;;;5.63;;
5787;SDS011;2920;48.158;12.254;2023-04-06T05:11:29;8.77;;;4.82;;
5787;SDS011;2920;48.158;12.254;2023-04-06T05:13:54;9.80;;;5.07;;
5787;SDS011;2920;48.158;12.254;2023-04-06T05:16:19;7.85;;;4.25;;
5787;SDS011;2920;48.158;12.254;2023-04-06T05:18:45;10.88;;;4.68;;
5787;SDS011;2920;48.158;12.254;2023-04-06T05:21:12;14.80;;;5.35;;
5787;SDS011;2920;48.158;12.254;2023-04-06T05:23:38;10.30;;;5.32;;
5787;SDS011;2920;48.158;12.254;2023-04-06T05:26:03;8.88;;;4.68;;
5787;SDS011;2920;48.158;12.254;2023-04-06T05:28:29;9.02;;;4.63;;
5787;SDS011;2920;48.158;12.254;2023-04-06T05:30:55;11.38;;;4.88;;
5787;SDS011;2920;48.158;12.254;2023-04-06T05:33:21;10.60;;;4.82;;
5787;SDS011;2920;48.158;12.254;2023-04-06T05:35:47;10.32;;;5.25;;
5787;SDS011;2920;48.158;12.254;2023-04-06T05:38:12;9.63;;;5.30;;
5787;SDS011;2920;48.158;12.254;2023-04-06T05:40:38;9.52;;;5.00;;
5787;SDS011;2920;48.158;12.254;2023-04-06T05:43:05;12.10;;;5.43;;
5787;SDS011;2920;48.158;12.254;2023-04-06T05:45:31;7.72;;;4.70;;
5787;SDS011;2920;48.158;12.254;2023-04-06T05:47:56;10.95;;;6.57;;
5787;SDS011;2920;48.158;12.254;2023-04-06T05:50:22;9.23;;;5.47;;
5787;SDS011;2920;48.158;12.254;2023-04-06T05:52:47;10.23;;;5.47;;
5787;SDS011;2920;48.158;12.254;2023-04-06T05:55:12;15.35;;;6.20;;
5787;SDS011;2920;48.158;12.254;2023-04-06T05:57:38;8.88;;;5.50;;
5787;SDS011;2920;48.158;12.254;2023-04-06T06:00:04;13.65;;;5.80;;
5787;SDS011;2920;48.158;12.254;2023-04-06T06:02:31;9.27;;;5.55;;
5787;SDS011;2920;48.158;12.254;2023-04-06T06:04:57;9.60;;;6.38;;
5787;SDS011;2920;48.158;12.254;2023-04-06T06:07:22;11.95;;;6.45;;
5787;SDS011;2920;48.158;12.254;2023-04-06T06:09:48;10.43;;;5.80;;
5787;SDS011;2920;48.158;12.254;2023-04-06T06:12:13;15.50;;;7.40;;
5787;SDS011;2920;48.158;12.254;2023-04-06T06:14:39;8.18;;;6.25;;
5787;SDS011;2920;48.158;12.254;2023-04-06T06:17:04;14.05;;;5.78;;
5787;SDS011;2920;48.158;12.254;2023-04-06T06:19:30;9.18;;;6.18;;
5787;SDS011;2920;48.158;12.254;2023-04-06T06:21:55;13.02;;;6.80;;
5787;SDS011;2920;48.158;12.254;2023-04-06T06:24:20;13.23;;;6.93;;
5787;SDS011;2920;48.158;12.254;2023-04-06T06:26:46;14.05;;;7.38;;
5787;SDS011;2920;48.158;12.254;2023-04-06T06:29:13;15.20;;;7.70;;
5787;SDS011;2920;48.158;12.254;2023-04-06T06:31:39;18.70;;;8.10;;
5787;SDS011;2920;48.158;12.254;2023-04-06T06:34:05;18.85;;;7.53;;
5787;SDS011;2920;48.158;12.254;2023-04-06T06:36:30;19.70;;;8.48;;
5787;SDS011;2920;48.158;12.254;2023-04-06T06:38:56;18.23;;;8.02;;
5787;SDS011;2920;48.158;12.254;2023-04-06T06:41:23;15.95;;;8.20;;
5787;SDS011;2920;48.158;12.254;2023-04-06T06:43:49;16.23;;;8.60;;
5787;SDS011;2920;48.158;12.254;2023-04-06T06:46:14;13.88;;;8.23;;
5787;SDS011;2920;48.158;12.254;2023-04-06T06:48:40;15.10;;;9.35;;
5787;SDS011;2920;48.158;12.254;2023-04-06T06:51:05;12.57;;;7.70;;
5787;SDS011;2920;48.158;12.254;2023-04-06T06:53:31;14.25;;;7.32;;
5787;SDS011;2920;48.158;12.254;2023-04-06T06:55:56;13.95;;;8.10;;
5787;SDS011;2920;48.158;12.254;2023-04-06T06:58:21;14.98;;;8.50;;
5787;SDS011;2920;48.158;12.254;2023-04-06T07:00:47;11.93;;;8.25;;
5787;SDS011;2920;48.158;12.254;2023-04-06T07:03:12;13.73;;;8.68;;
5787;SDS011;2920;48.158;12.254;2023-04-06T07:05:38;11.77;;;7.40;;
5787;SDS011;2920;48.158;12.254;2023-04-06T07:08:03;11.88;;;7.95;;
5787;SDS011;2920;48.158;12.254;2023-04-06T07:10:29;10.52;;;7.65;;
5787;SDS011;2920;48.158;12.254;2023-04-06T07:12:54;18.50;;;8.55;;
5787;SDS011;2920;48.158;12.254;2023-04-06T07:15:20;10.68;;;7.55;;
5787;SDS011;2920;48.158;12.254;2023-04-06T07:17:45;12.30;;;7.85;;
5787;SDS011;2920;48.158;12.254;2023-04-06T07:20:11;11.65;;;7.88;;
5787;SDS011;2920;48.158;12.254;2023-04-06T07:22:40;12.10;;;7.95;;
5787;SDS011;2920;48.158;12.254;2023-04-06T07:25:06;14.20;;;8.27;;
5787;SDS011;2920;48.158;12.254;2023-04-06T07:27:32;12.57;;;8.25;;
5787;SDS011;2920;48.158;12.254;2023-04-06T07:29:57;14.95;;;8.10;;
5787;SDS011;2920;48.158;12.254;2023-04-06T07:32:23;12.68;;;8.15;;
5787;SDS011;2920;48.158;12.254;2023-04-06T07:34:48;9.50;;;6.97;;
5787;SDS011;2920;48.158;12.254;2023-04-06T07:37:13;11.93;;;7.97;;
5787;SDS011;2920;48.158;12.254;2023-04-06T07:39:39;12.57;;;7.18;;
5787;SDS011;2920;48.158;12.254;2023-04-06T07:42:05;13.68;;;7.72;;
5787;SDS011;2920;48.158;12.254;2023-04-06T07:44:30;9.35;;;6.85;;
5787;SDS011;2920;48.158;12.254;2023-04-06T07:46:56;10.73;;;6.25;;
5787;SDS011;2920;48.158;12.254;2023-04-06T07:49:21;10.00;;;5.78;;
5787;SDS011;2920;48.158;12.254;2023-04-06T07:51:47;10.55;;;5.95;;
5787;SDS011;2920;48.158;12.254;2023-04-06T07:54:13;10.20;;;5.13;;
5787;SDS011;2920;48.158;12.254;2023-04-06T07:56:38;9.57;;;6.10;;
5787;SDS011;2920;48.158;12.254;2023-04-06T07:59:04;9.05;;;5.93;;
5787;SDS011;2920;48.158;12.254;2023-04-06T08:01:29;10.57;;;5.32;;
5787;SDS011;2920;48.158;12.254;2023-04-06T08:03:55;8.57;;;5.40;;
5787;SDS011;2920;48.158;12.254;2023-04-06T08:06:21;10.50;;;6.00;;
5787;SDS011;2920;48.158;12.254;2023-04-06T08:08:46;6.03;;;4.25;;
5787;SDS011;2920;48.158;12.254;2023-04-06T08:11:12;9.45;;;5.40;;
5787;SDS011;2920;48.158;12.254;2023-04-06T08:13:37;7.40;;;4.50;;
5787;SDS011;2920;48.158;12.254;2023-04-06T08:16:02;7.10;;;5.38;;
5787;SDS011;2920;48.158;12.254;2023-04-06T08:18:28;9.30;;;4.75;;
5787;SDS011;2920;48.158;12.254;2023-04-06T08:20:54;9.02;;;5.40;;
5787;SDS011;2920;48.158;12.254;2023-04-06T08:23:20;7.93;;;5.28;;
5787;SDS011;2920;48.158;12.254;2023-04-06T08:25:46;13.77;;;5.55;;
5787;SDS011;2920;48.158;12.254;2023-04-06T08:28:11;9.85;;;4.22;;
5787;SDS011;2920;48.158;12.254;2023-04-06T08:30:39;7.60;;;5.00;;
5787;SDS011;2920;48.158;12.254;2023-04-06T08:33:05;9.15;;;4.82;;
5787;SDS011;2920;48.158;12.254;2023-04-06T08:35:30;6.43;;;4.05;;
5787;SDS011;2920;48.158;12.254;2023-04-06T08:37:56;7.32;;;4.57;;
5787;SDS011;2920;48.158;12.254;2023-04-06T08:40:22;8.88;;;5.10;;
5787;SDS011;2920;48.158;12.254;2023-04-06T08:42:52;5.97;;;4.22;;
5787;SDS011;2920;48.158;12.254;2023-04-06T08:45:19;10.70;;;4.10;;
5787;SDS011;2920;48.158;12.254;2023-04-06T08:47:46;6.97;;;4.13;;
5787;SDS011;2920;48.158;12.254;2023-04-06T08:50:13;7.65;;;4.28;;
5787;SDS011;2920;48.158;12.254;2023-04-06T08:52:40;7.55;;;4.30;;
5787;SDS011;2920;48.158;12.254;2023-04-06T08:55:05;9.57;;;4.57;;
5787;SDS011;2920;48.158;12.254;2023-04-06T08:57:31;6.57;;;4.65;;
5787;SDS011;2920;48.158;12.254;2023-04-06T08:59:56;5.50;;;3.70;;
5787;SDS011;2920;48.158;12.254;2023-04-06T09:02:22;4.72;;;3.53;;
5787;SDS011;2920;48.158;12.254;2023-04-06T09:04:49;11.70;;;4.50;;
5787;SDS011;2920;48.158;12.254;2023-04-06T09:07:17;4.75;;;3.53;;
5787;SDS011;2920;48.158;12.254;2023-04-06T09:09:43;7.95;;;3.65;;
5787;SDS011;2920;48.158;12.254;2023-04-06T09:12:25;5.50;;;3.92;;
5787;SDS011;2920;48.158;12.254;2023-04-06T09:17:24;9.32;;;4.68;;
5787;SDS011;2920;48.158;12.254;2023-04-06T09:19:50;7.82;;;4.47;;
5787;SDS011;2920;48.158;12.254;2023-04-06T09:22:16;7.30;;;3.88;;
5787;SDS011;2920;48.158;12.254;2023-04-06T09:24:46;6.90;;;4.78;;
5787;SDS011;2920;48.158;12.254;2023-04-06T09:27:12;7.82;;;4.78;;
5787;SDS011;2920;48.158;12.254;2023-04-06T09:29:38;5.90;;;4.32;;
5787;SDS011;2920;48.158;12.254;2023-04-06T09:32:04;5.65;;;4.93;;
5787;SDS011;2920;48.158;12.254;2023-04-06T09:34:30;8.48;;;5.03;;
5787;SDS011;2920;48.158;12.254;2023-04-06T09:36:56;9.75;;;4.30;;
5787;SDS011;2920;48.158;12.254;2023-04-06T09:39:21;6.78;;;4.78;;
5787;SDS011;2920;48.158;12.254;2023-04-06T09:41:51;7.47;;;5.07;;
5787;SDS011;2920;48.158;12.254;2023-04-06T09:44:17;6.55;;;5.20;;
5787;SDS011;2920;48.158;12.254;2023-04-06T09:46:42;6.53;;;4.53;;
5787;SDS011;2920;48.158;12.254;2023-04-06T09:49:09;8.95;;;5.55;;
5787;SDS011;2920;48.158;12.254;2023-04-06T09:51:44;6.55;;;5.07;;
5787;SDS011;2920;48.158;12.254;2023-04-06T09:54:15;7.68;;;4.97;;
5787;SDS011;2920;48.158;12.254;2023-04-06T09:56:46;6.30;;;4.20;;
5787;SDS011;2920;48.158;12.254;2023-04-06T10:01:46;6.82;;;4.82;;
5787;SDS011;2920;48.158;12.254;2023-04-06T10:04:32;8.05;;;4.82;;
5787;SDS011;2920;48.158;12.254;2023-04-06T10:07:03;6.90;;;3.90;;
5787;SDS011;2920;48.158;12.254;2023-04-06T10:09:30;7.20;;;4.70;;
5787;SDS011;2920;48.158;12.254;2023-04-06T10:12:02;9.93;;;5.75;;
5787;SDS011;2920;48.158;12.254;2023-04-06T10:14:28;7.88;;;5.43;;
5787;SDS011;2920;48.158;12.254;2023-04-06T10:16:55;6.80;;;5.05;;
5787;SDS011;2920;48.158;12.254;2023-04-06T10:19:25;6.65;;;4.97;;
5787;SDS011;2920;48.158;12.254;2023-04-06T10:21:53;9.20;;;5.65;;
5787;SDS011;2920;48.158;12.254;2023-04-06T10:24:20;6.65;;;5.05;;
5787;SDS011;2920;48.158;12.254;2023-04-06T10:26:58;7.30;;;4.70;;
5787;SDS011;2920;48.158;12.254;2023-04-06T10:31:50;7.50;;;5.43;;
5787;SDS011;2920;48.158;12.254;2023-04-06T10:34:15;8.43;;;6.22;;
5787;SDS011;2920;48.158;12.254;2023-04-06T10:36:41;7.25;;;5.43;;
5787;SDS011;2920;48.158;12.254;2023-04-06T10:39:06;7.38;;;5.20;;
5787;SDS011;2920;48.158;12.254;2023-04-06T10:41:35;6.97;;;5.35;;
5787;SDS011;2920;48.158;12.254;2023-04-06T10:44:02;7.72;;;4.97;;
5787;SDS011;2920;48.158;12.254;2023-04-06T10:46:32;8.93;;;6.30;;
5787;SDS011;2920;48.158;12.254;2023-04-06T10:48:58;8.05;;;5.90;;
5787;SDS011;2920;48.158;12.254;2023-04-06T10:51:37;9.75;;;6.75;;
5787;SDS011;2920;48.158;12.254;2023-04-06T10:54:03;9.77;;;6.38;;
5787;SDS011;2920;48.158;12.254;2023-04-06T10:56:28;10.00;;;6.90;;
5787;SDS011;2920;48.158;12.254;2023-04-06T10:58:55;9.27;;;6.05;;
5787;SDS011;2920;48.158;12.254;2023-04-06T11:01:21;11.07;;;6.13;;
5787;SDS011;2920;48.158;12.254;2023-04-06T11:03:48;10.95;;;6.63;;
5787;SDS011;2920;48.158;12.254;2023-04-06T11:06:25;8.55;;;6.00;;
5787;SDS011;2920;48.158;12.254;2023-04-06T11:08:52;12.02;;;6.80;;
5787;SDS011;2920;48.158;12.254;2023-04-06T11:11:19;9.13;;;5.88;;
5787;SDS011;2920;48.158;12.254;2023-04-06T11:16:12;7.72;;;5.97;;
5787;SDS011;2920;48.158;12.254;2023-04-06T11:18:46;9.65;;;6.30;;
5787;SDS011;2920;48.158;12.254;2023-04-06T11:21:15;6.20;;;5.00;;
5787;SDS011;2920;48.158;12.254;2023-04-06T11:23:40;9.07;;;5.85;;
5787;SDS011;2920;48.158;12.254;2023-04-06T11:26:09;7.60;;;5.35;;
5787;SDS011;2920;48.158;12.254;2023-04-06T11:28:36;8.40;;;6.20;;
5787;SDS011;2920;48.158;12.254;2023-04-06T11:31:01;7.80;;;5.68;;
5787;SDS011;2920;48.158;12.254;2023-04-06T11:33:26;8.90;;;6.45;;
5787;SDS011;2920;48.158;12.254;2023-04-06T11:35:52;9.93;;;6.15;;
5787;SDS011;2920;48.158;12.254;2023-04-06T11:38:18;9.10;;;6.13;;
5787;SDS011;2920;48.158;12.254;2023-04-06T11:40:44;7.40;;;4.82;;
5787;SDS011;2920;48.158;12.254;2023-04-06T11:43:12;6.57;;;5.57;;
5787;SDS011;2920;48.158;12.254;2023-04-06T11:45:41;10.60;;;6.50;;
5787;SDS011;2920;48.158;12.254;2023-04-06T11:48:17;12.90;;;6.15;;
5787;SDS011;2920;48.158;12.254;2023-04-06T11:50:43;8.90;;;4.97;;
5787;SDS011;2920;48.158;12.254;2023-04-06T11:53:11;9.30;;;5.65;;
5787;SDS011;2920;48.158;12.254;2023-04-06T11:55:37;6.63;;;5.38;;
5787;SDS011;2920;48.158;12.254;2023-04-06T11:58:03;9.93;;;6.50;;
5787;SDS011;2920;48.158;12.254;2023-04-06T12:00:28;8.07;;;5.32;;
5787;SDS011;2920;48.158;12.254;2023-04-06T12:02:59;9.30;;;6.10;;
5787;SDS011;2920;48.158;12.254;2023-04-06T12:05:25;9.07;;;6.60;;
5787;SDS011;2920;48.158;12.254;2023-04-06T12:07:50;8.90;;;6.05;;
5787;SDS011;2920;48.158;12.254;2023-04-06T12:10:15;5.63;;;4.20;;
5787;SDS011;2920;48.158;12.254;2023-04-06T12:12:41;6.18;;;4.40;;
5787;SDS011;2920;48.158;12.254;2023-04-06T12:15:06;9.27;;;5.75;;
5787;SDS011;2920;48.158;12.254;2023-04-06T12:17:32;7.10;;;5.45;;
5787;SDS011;2920;48.158;12.254;2023-04-06T12:19:58;7.10;;;4.95;;
5787;SDS011;2920;48.158;12.254;2023-04-06T12:22:23;7.22;;;5.18;;
5787;SDS011;2920;48.158;12.254;2023-04-06T12:24:48;10.55;;;6.00;;
5787;SDS011;2920;48.158;12.254;2023-04-06T12:27:14;6.53;;;5.10;;
5787;SDS011;2920;48.158;12.254;2023-04-06T12:29:39;7.97;;;6.25;;
5787;SDS011;2920;48.158;12.254;2023-04-06T12:32:04;5.43;;;4.07;;
5787;SDS011;2920;48.158;12.254;2023-04-06T12:34:31;8.18;;;5.30;;
5787;SDS011;2920;48.158;12.254;2023-04-06T12:36:56;6.55;;;5.00;;
5787;SDS011;2920;48.158;12.254;2023-04-06T12:39:22;7.25;;;5.53;;
5787;SDS011;2920;48.158;12.254;2023-04-06T12:41:47;7.90;;;6.05;;
5787;SDS011;2920;48.158;12.254;2023-04-06T12:44:12;8.63;;;5.72;;
5787;SDS011;2920;48.158;12.254;2023-04-06T12:46:38;6.00;;;4.50;;
5787;SDS011;2920;48.158;12.254;2023-04-06T12:49:03;5.93;;;4.95;;
5787;SDS011;2920;48.158;12.254;2023-04-06T12:51:29;9.85;;;5.20;;
5787;SDS011;2920;48.158;12.254;2023-04-06T12:53:55;6.68;;;4.63;;
5787;SDS011;2920;48.158;12.254;2023-04-06T12:56:21;8.27;;;5.40;;
5787;SDS011;2920;48.158;12.254;2023-04-06T12:58:47;7.18;;;5.30;;
5787;SDS011;2920;48.158;12.254;2023-04-06T13:01:13;8.95;;;6.05;;
5787;SDS011;2920;48.158;12.254;2023-04-06T13:03:38;7.60;;;5.75;;
5787;SDS011;2920;48.158;12.254;2023-04-06T13:06:04;6.05;;;5.45;;
5787;SDS011;2920;48.158;12.254;2023-04-06T13:08:30;4.95;;;3.97;;
5787;SDS011;2920;48.158;12.254;2023-04-06T13:10:55;6.53;;;5.03;;
5787;SDS011;2920;48.158;12.254;2023-04-06T13:13:26;9.18;;;5.13;;
5787;SDS011;2920;48.158;12.254;2023-04-06T13:15:52;26.17;;;6.10;;
5787;SDS011;2920;48.158;12.254;2023-04-06T13:18:18;9.75;;;6.15;;
5787;SDS011;2920;48.158;12.254;2023-04-06T13:20:44;9.05;;;6.45;;
5787;SDS011;2920;48.158;12.254;2023-04-06T13:23:11;7.25;;;5.85;;
5787;SDS011;2920;48.158;12.254;2023-04-06T13:25:37;7.43;;;5.85;;
5787;SDS011;2920;48.158;12.254;2023-04-06T13:28:02;8.27;;;6.63;;
5787;SDS011;2920;48.158;12.254;2023-04-06T13:30:28;7.13;;;5.22;;
5787;SDS011;2920;48.158;12.254;2023-04-06T13:32:53;7.15;;;5.32;;
5787;SDS011;2920;48.158;12.254;2023-04-06T13:35:18;8.05;;;6.10;;
5787;SDS011;2920;48.158;12.254;2023-04-06T13:37:44;6.32;;;4.78;;
5787;SDS011;2920;48.158;12.254;2023-04-06T13:40:09;6.97;;;5.28;;
5787;SDS011;2920;48.158;12.254;2023-04-06T13:42:35;6.22;;;4.38;;
5787;SDS011;2920;48.158;12.254;2023-04-06T13:45:01;4.75;;;3.88;;
5787;SDS011;2920;48.158;12.254;2023-04-06T13:47:26;8.57;;;5.18;;
5787;SDS011;2920;48.158;12.254;2023-04-06T13:49:52;5.25;;;4.65;;
5787;SDS011;2920;48.158;12.254;2023-04-06T13:52:18;6.60;;;5.80;;
5787;SDS011;2920;48.158;12.254;2023-04-06T13:54:44;8.25;;;6.47;;
5787;SDS011;2920;48.158;12.254;2023-04-06T13:57:10;4.00;;;3.45;;
5787;SDS011;2920;48.158;12.254;2023-04-06T13:59:36;5.75;;;4.22;;
5787;SDS011;2920;48.158;12.254;2023-04-06T14:02:02;6.97;;;5.47;;
5787;SDS011;2920;48.158;12.254;2023-04-06T14:04:28;7.82;;;4.93;;
5787;SDS011;2920;48.158;12.254;2023-04-06T14:06:55;8.18;;;5.30;;
5787;SDS011;2920;48.158;12.254;2023-04-06T14:09:20;9.90;;;6.35;;
5787;SDS011;2920;48.158;12.254;2023-04-06T14:11:46;13.63;;;5.30;;
5787;SDS011;2920;48.158;12.254;2023-04-06T14:14:11;6.38;;;5.57;;
5787;SDS011;2920;48.158;12.254;2023-04-06T14:16:37;7.38;;;5.65;;
5787;SDS011;2920;48.158;12.254;2023-04-06T14:19:02;7.07;;;5.07;;
5787;SDS011;2920;48.158;12.254;2023-04-06T14:21:28;9.75;;;5.95;;
5787;SDS011;2920;48.158;12.254;2023-04-06T14:23:53;8.70;;;4.97;;
5787;SDS011;2920;48.158;12.254;2023-04-06T14:26:18;6.35;;;4.85;;
5787;SDS011;2920;48.158;12.254;2023-04-06T14:28:44;11.18;;;6.55;;
5787;SDS011;2920;48.158;12.254;2023-04-06T14:31:11;6.47;;;4.80;;
5787;SDS011;2920;48.158;12.254;2023-04-06T14:33:38;6.88;;;4.90;;
5787;SDS011;2920;48.158;12.254;2023-04-06T14:36:03;10.40;;;5.15;;
5787;SDS011;2920;48.158;12.254;2023-04-06T14:38:30;8.25;;;5.07;;
5787;SDS011;2920;48.158;12.254;2023-04-06T14:40:56;7.90;;;4.80;;
5787;SDS011;2920;48.158;12.254;2023-04-06T14:43:21;9.35;;;6.18;;
5787;SDS011;2920;48.158;12.254;2023-04-06T14:45:47;7.65;;;5.45;;
5787;SDS011;2920;48.158;12.254;2023-04-06T14:48:12;7.00;;;5.47;;
5787;SDS011;2920;48.158;12.254;2023-04-06T14:50:38;8.57;;;6.07;;
5787;SDS011;2920;48.158;12.254;2023-04-06T14:53:04;12.13;;;7.03;;
5787;SDS011;2920;48.158;12.254;2023-04-06T14:55:29;7.97;;;6.53;;
5787;SDS011;2920;48.158;12.254;2023-04-06T14:57:55;5.80;;;4.07;;
5787;SDS011;2920;48.158;12.254;2023-04-06T15:00:20;8.15;;;5.82;;